Datos de la estación

Estación Meteorológica de Padul

Provincia: Granada
Código de Estación: 10
Primer día registrado: 26-01-2001
Último día registrado: 06-10-2022

Datos Localización

Latitud: 37º 01' 07'' N
Longitud: 03º 36' 01'' W
Altitud: 747

Coordenadas UTM

X: 446599
Y: 4097120

Fecha de Medida
06-10-2022
Día Juliano
279
Temp. Máxima (ºC)
25.1
Velocidad Viento Media (m/s)
0.6
Hora Temp. Máxima
11:54
Dirección Viento Media (º)
110.0
Temp. Mínima (ºC)
11.9
Radiación (MJ/m2 d)
15.2
Hora Temp. Mínima
6:26
Precipitación (mm)
1.3
Temp. Media (ºC)
17.1
ETo (mm/dia)
2.5
Humedad Relativa Máxima (%)
96.2
Humedad Relativa Mínima (%)
43.3
Precipitación Acumulada (mm)
8.8
Humedad Relativa Media (%)
78.1
ETo Acumulada (mm)
134.6
Temperatura Máxima Humedad Máxima Dirección del Viento
Temperatura Mínima Humedad Mínima Precipitación
Temperatura Media Humedad Media ETo
HH:MM Temperatura Máxima Radiación Marcar Todas
HH:MM Temperatura Mínima Velocidad del Viento
 
Fecha Día Juliano Temp. Máxima (ºC) Hora Temp Máxima Temp. Mínima (ºC) Hora Temp Mínima Temp. Media (ºC) Humedad Relativa Máxima (%) Humedad Relativa Media (%) Humedad Relativa Mínima (%) Velocidad Viento Media (m/s) Dirección Viento Media (º) Radiación (MJ/m2 d) Precipitación (mm) ETo (mm/dia)
06-10-2022 279 25.1 11:54 11.9 6:26 17.1 96.2 78.1 43.3 0.6 110.0 15.2 1.3 2.5
05-10-2022 278 25.6 12:36 11.0 5:18 18.4 85.7 62.4 34.7 0.9 112.3 16.2 0.0 2.9
04-10-2022 277 30.1 13:06 13.7 23:18 21.4 68.9 38.3 20.6 0.8 86.9 16.2 0.0 3.2
03-10-2022 276 30.7 14:12 17.1 6:26 23.6 64.5 34.4 15.3 1.0 309.0 14.2 0.0 3.5
02-10-2022 275 28.5 14:28 5.8 4:46 19.0 87.8 43.4 11.8 0.9 74.9 14.8 0.0 3.1
01-10-2022 274 23.8 14:30 5.8 6:18 14.6 88.0 58.3 30.0 0.7 119.5 19.2 0.0 2.8
30-09-2022 273 23.6 14:52 9.0 --:-- 16.0 83.2 51.3 19.6 1.4 311.3 20.0 0.1 3.6
29-09-2022 272 23.1 14:58 12.5 20:24 16.5 82.8 61.7 32.9 1.9 300.9 18.0 1.2 3.7
28-09-2022 271 26.2 14:40 12.3 7:00 19.0 64.9 42.1 27.3 1.4 323.6 19.9 0.0 3.9
27-09-2022 270 25.4 14:22 12.6 2:26 18.9 65.0 40.3 23.9 1.5 306.0 19.9 0.0 4.0
26-09-2022 269 25.2 14:20 9.0 1:52 17.2 80.2 48.2 23.5 1.1 296.3 19.9 0.0 3.5
25-09-2022 268 25.7 12:20 10.7 23:58 18.3 78.1 45.7 16.9 0.9 102.6 18.7 0.0 3.4
24-09-2022 267 29.6 14:34 13.3 3:50 21.7 87.0 48.2 22.3 0.9 304.3 19.3 0.0 3.7
23-09-2022 266 27.4 13:24 13.2 5:58 19.9 97.5 66.8 37.9 0.6 122.3 17.4 0.2 3.1
22-09-2022 265 28.2 11:44 14.2 4:34 19.8 92.7 70.2 33.9 0.7 129.4 20.0 1.8 3.5
21-09-2022 264 29.3 12:36 16.5 23:58 20.6 87.2 67.9 31.7 0.6 99.7 13.8 1.9 2.9
20-09-2022 263 28.1 13:34 14.7 4:08 20.7 92.7 69.3 41.1 0.7 134.0 18.3 0.0 3.3
19-09-2022 262 28.4 14:18 15.1 5:46 20.5 96.8 71.9 41.4 0.8 131.3 19.8 0.0 3.6
18-09-2022 261 30.6 13:34 14.4 6:14 21.5 91.5 66.7 29.0 0.6 164.8 19.3 0.0 3.6
17-09-2022 260 29.2 12:06 13.8 6:22 21.5 89.7 59.6 28.4 0.6 150.2 21.0 0.0 3.7
16-09-2022 259 29.1 13:48 14.4 5:48 21.3 87.2 56.5 31.7 0.7 130.3 20.9 0.0 3.8
15-09-2022 258 28.2 14:22 14.6 6:18 20.8 82.8 58.4 36.1 1.4 293.4 21.1 0.0 4.3
14-09-2022 257 27.3 15:14 17.7 23:40 22.3 68.6 46.2 31.6 1.2 290.8 12.2 0.0 3.3
13-09-2022 256 28.2 13:34 18.1 5:56 23.1 90.9 56.5 38.6 1.3 111.8 12.2 2.3 3.2
12-09-2022 255 34.9 11:02 21.2 22:48 27.9 72.7 34.7 18.1 1.5 110.8 14.4 0.0 4.7
11-09-2022 254 33.7 11:58 15.9 6:42 25.3 72.1 40.6 18.8 0.8 109.7 17.6 0.0 4.0
10-09-2022 253 33.4 13:08 15.8 4:52 24.4 79.3 41.9 21.4 0.7 104.0 19.7 0.0 4.1
09-09-2022 252 34.7 13:28 17.8 6:04 25.2 72.3 40.8 20.1 0.7 157.0 22.2 0.0 4.5
08-09-2022 251 33.6 14:22 16.2 6:08 24.8 48.3 30.4 10.2 1.2 305.6 23.2 0.0 5.2
07-09-2022 250 33.0 13:14 16.1 6:36 24.4 59.8 33.0 10.8 1.0 285.0 21.4 0.0 4.7
06-09-2022 249 34.2 13:34 14.8 5:06 24.3 61.6 32.7 11.3 0.8 255.1 23.4 0.0 4.7
05-09-2022 248 32.9 14:10 13.9 5:30 23.4 74.5 33.8 14.4 0.9 284.4 22.7 0.0 4.7
04-09-2022 247 32.3 12:26 14.0 6:12 23.3 69.4 34.9 5.2 1.0 120.7 23.7 0.0 4.9
03-09-2022 246 29.2 15:04 17.9 --:-- 23.3 54.4 36.8 22.2 0.7 115.0 12.4 0.0 3.2
02-09-2022 245 32.9 14:38 18.8 1:52 25.7 49.9 33.0 17.9 0.8 283.2 16.2 0.0 4.0
01-09-2022 244 33.7 12:16 15.4 5:16 24.5 88.4 42.7 13.8 0.7 306.8 15.8 0.0 3.8
31-08-2022 243 32.6 12:06 18.3 1:30 24.7 91.7 57.2 30.7 0.7 123.0 19.3 1.5 4.1
30-08-2022 242 34.5 10:32 19.2 23:40 26.0 88.3 48.0 23.0 0.8 29.5 9.7 1.9 3.2
29-08-2022 241 31.4 13:44 19.9 10:58 25.0 81.2 53.8 34.5 1.2 71.1 8.4 2.4 3.1
28-08-2022 240 32.6 13:24 18.0 6:08 24.8 91.5 62.6 36.2 1.0 131.4 24.2 0.0 5.1
27-08-2022 239 31.0 14:58 16.9 6:18 23.8 92.8 66.9 36.1 0.9 147.6 25.2 0.0 4.9
26-08-2022 238 31.4 13:44 14.5 6:00 23.7 83.4 57.6 35.3 0.9 135.6 25.2 0.0 4.9
25-08-2022 237 32.9 14:28 17.7 4:36 25.7 78.6 45.8 28.2 0.7 144.5 25.5 0.0 5.0
24-08-2022 236 33.8 14:38 15.3 5:56 25.2 82.3 49.0 22.4 0.9 118.5 22.5 0.0 4.9
23-08-2022 235 33.3 13:52 15.3 4:04 25.0 75.4 44.3 19.1 0.7 128.0 25.8 0.0 5.0
22-08-2022 234 37.1 11:12 19.4 23:54 27.9 63.5 24.4 9.2 0.8 118.7 26.4 0.0 5.5
21-08-2022 233 38.1 13:54 15.6 1:28 28.0 72.7 25.5 8.7 1.1 310.9 27.0 0.0 6.2
20-08-2022 232 33.2 12:42 14.5 5:52 24.4 77.1 39.8 18.1 0.9 115.0 26.6 0.0 5.4
19-08-2022 231 31.8 14:46 13.2 4:58 23.8 80.5 41.9 22.2 0.8 120.6 26.7 0.0 5.1
18-08-2022 230 31.3 12:38 16.1 5:48 23.4 58.3 35.0 14.4 0.9 115.9 26.8 0.0 5.3
17-08-2022 229 30.7 14:40 17.9 5:34 23.9 60.5 36.9 17.3 1.6 289.3 27.2 0.0 6.2
16-08-2022 228 32.8 15:24 15.1 6:00 24.3 63.6 34.5 16.9 1.2 298.8 27.3 0.0 5.9
15-08-2022 227 34.2 14:06 18.3 6:10 25.9 50.6 27.7 9.4 1.3 288.9 27.7 0.0 6.3
14-08-2022 226 37.5 12:20 22.2 23:02 29.8 47.6 27.4 18.3 1.1 299.4 23.9 0.0 5.9
13-08-2022 225 38.3 13:22 21.3 6:02 30.2 63.4 32.5 14.1 1.1 306.7 19.0 0.2 5.4
12-08-2022 224 37.4 13:16 19.6 4:56 28.4 82.7 43.6 17.3 0.9 129.9 23.3 0.0 5.5
11-08-2022 223 34.6 14:04 17.3 4:42 25.8 87.8 55.5 26.5 0.7 151.8 26.3 0.0 5.4
10-08-2022 222 33.8 11:00 18.8 4:00 26.0 82.9 51.1 25.2 1.1 113.9 25.7 0.0 5.7
09-08-2022 221 31.9 10:26 17.6 2:28 25.1 86.8 61.8 30.8 0.9 119.5 23.0 0.0 4.9
08-08-2022 220 33.2 14:22 15.1 5:06 24.8 85.6 50.1 23.2 0.7 148.3 28.0 0.0 5.5
07-08-2022 219 33.4 13:52 14.7 5:34 24.4 92.7 53.2 18.2 0.7 146.8 28.6 0.0 5.6
06-08-2022 218 33.4 13:02 15.9 4:42 24.7 90.6 56.2 26.7 0.8 143.1 28.9 0.0 5.8
05-08-2022 217 34.1 14:34 16.1 5:44 25.4 84.3 51.6 23.0 0.8 138.5 28.4 0.0 5.8
04-08-2022 216 33.8 11:28 18.5 4:02 27.3 76.7 39.7 22.6 1.2 100.5 28.6 0.0 6.3
03-08-2022 215 36.5 13:18 20.0 5:06 28.5 57.4 35.6 14.4 1.1 107.8 28.0 0.4 6.4
02-08-2022 214 34.2 13:28 19.7 6:12 27.0 92.7 52.7 24.0 0.9 111.8 27.2 0.0 5.9
01-08-2022 213 32.7 12:18 18.5 5:20 26.1 88.7 63.3 38.8 0.9 130.2 27.2 0.0 5.7
31-07-2022 212 36.2 12:44 20.1 3:52 26.3 92.6 64.5 27.9 0.7 145.0 26.8 0.0 5.8
30-07-2022 211 37.0 13:10 21.2 1:22 27.2 85.2 52.9 20.0 1.3 102.7 20.8 0.0 5.9
29-07-2022 210 36.7 13:30 17.5 5:18 27.3 74.4 39.2 12.7 0.9 130.2 26.9 0.0 6.0
28-07-2022 209 35.2 14:22 17.6 5:00 26.8 62.7 34.6 18.5 0.6 216.6 27.9 0.0 5.6
27-07-2022 208 33.1 10:52 21.8 23:54 27.2 56.1 39.4 23.5 1.0 180.3 27.2 0.0 6.0
26-07-2022 207 38.3 13:36 22.7 5:36 30.7 30.2 14.9 6.3 1.1 321.1 28.0 0.0 6.6
25-07-2022 206 40.9 12:38 24.0 00:04 31.9 33.0 15.9 7.7 0.9 59.4 22.5 0.0 5.9
24-07-2022 205 40.3 13:42 20.6 1:34 29.9 64.9 28.3 5.5 0.7 250.2 27.1 0.0 6.0
23-07-2022 204 36.9 15:02 17.6 5:42 27.9 79.3 37.0 15.1 0.7 153.1 27.2 0.0 5.8
22-07-2022 203 35.1 13:42 17.9 5:12 27.0 89.9 46.7 17.3 0.8 129.9 26.5 0.0 5.7
21-07-2022 202 32.7 12:58 18.8 5:52 25.0 94.8 68.5 38.1 0.9 130.5 27.4 0.0 5.7
20-07-2022 201 34.8 12:38 18.9 5:58 27.1 75.8 36.8 18.9 0.8 121.2 28.5 0.0 6.0
19-07-2022 200 35.4 12:32 17.5 5:12 26.5 86.0 45.6 18.9 0.7 167.3 27.6 0.0 5.8
18-07-2022 199 34.6 13:18 16.0 6:04 26.4 77.2 46.1 18.8 0.7 136.9 27.2 0.0 5.6
17-07-2022 198 34.4 14:08 14.9 4:50 25.6 84.9 42.9 20.4 0.8 144.8 28.6 0.0 5.9
16-07-2022 197 33.6 12:58 15.3 5:38 25.4 80.8 41.2 18.3 0.9 121.1 28.0 0.0 5.9
15-07-2022 196 33.6 15:08 18.0 6:12 26.9 68.0 33.3 19.4 1.0 109.0 27.7 0.0 6.0
14-07-2022 195 35.3 12:10 16.5 5:00 27.5 80.6 34.6 13.6 0.8 127.2 27.9 0.0 5.9
13-07-2022 194 34.7 14:28 15.9 5:04 26.2 86.9 45.1 20.5 0.8 127.5 27.9 0.0 5.9
12-07-2022 193 32.8 12:40 13.7 5:44 24.7 83.2 47.0 17.0 0.8 132.2 28.8 0.0 5.8
11-07-2022 192 33.2 12:28 16.0 5:30 25.3 81.9 43.6 18.0 0.9 128.7 28.4 0.0 6.0
10-07-2022 191 32.3 13:56 16.0 5:20 25.0 85.2 48.5 22.6 0.8 136.9 28.3 0.0 5.8
09-07-2022 190 31.5 14:34 17.1 5:30 25.2 80.5 45.3 27.0 1.0 110.3 28.6 0.0 5.9
08-07-2022 189 32.3 13:14 16.9 5:14 24.6 92.9 58.2 33.4 0.9 118.2 28.3 0.0 5.9
07-07-2022 188 31.1 14:26 15.3 5:58 23.4 94.5 66.9 32.8 0.8 140.6 28.6 0.0 5.7
06-07-2022 187 35.1 16:06 17.9 5:00 25.5 88.4 52.1 9.3 0.8 228.6 29.0 0.0 6.1
05-07-2022 186 34.5 12:58 21.8 5:30 27.7 65.9 36.7 19.6 1.2 114.9 22.0 0.0 5.8
04-07-2022 185 36.2 13:52 18.0 5:36 27.4 87.7 42.2 11.4 0.9 126.4 25.5 0.0 5.9
03-07-2022 184 32.7 15:00 18.8 3:02 24.7 87.0 62.4 38.1 0.9 144.8 25.8 0.0 5.6
02-07-2022 183 30.6 14:04 16.0 3:04 22.8 92.5 66.9 40.0 0.9 140.2 27.8 0.0 5.6
01-07-2022 182 30.2 11:28 16.3 5:52 23.0 82.8 49.9 26.1 1.0 117.2 28.3 0.0 5.8
30-06-2022 181 33.3 16:10 16.5 5:14 25.5 49.7 29.4 16.3 1.1 280.9 28.8 0.0 6.3
29-06-2022 180 31.3 13:06 14.3 5:16 23.2 82.7 42.5 22.0 0.7 145.6 28.8 0.0 5.6
28-06-2022 179 29.1 13:34 12.1 5:22 22.0 81.2 42.1 27.4 0.8 140.2 29.3 0.0 5.5
27-06-2022 178 30.2 15:22 13.6 5:48 22.1 47.7 26.9 15.4 1.3 303.3 29.8 0.0 6.3
26-06-2022 177 31.7 13:06 13.9 5:10 22.9 65.7 34.9 20.6 1.2 283.4 29.4 0.0 6.3
25-06-2022 176 31.4 14:52 13.5 5:04 22.8 70.9 39.0 20.8 1.1 273.9 29.6 0.0 6.1
24-06-2022 175 30.2 15:50 13.1 5:54 21.7 73.0 42.4 18.3 1.3 288.2 29.4 0.0 6.2
23-06-2022 174 27.4 14:30 10.7 4:38 19.6 86.3 46.5 12.0 1.3 183.5 29.6 0.0 5.8
22-06-2022 173 27.0 13:34 9.8 4:18 19.1 67.0 42.4 18.0 1.3 297.4 29.8 0.0 5.8
21-06-2022 172 28.9 12:54 13.7 --:-- 20.5 69.7 46.9 12.4 0.8 92.8 8.7 0.0 3.1
20-06-2022 171 33.9 15:56 16.6 5:28 26.0 60.8 27.3 9.3 1.0 117.9 21.6 0.0 5.4
19-06-2022 170 35.1 14:16 17.0 5:24 25.7 62.1 34.3 8.3 1.1 231.0 28.8 0.0 6.6
18-06-2022 169 37.1 14:00 16.9 5:14 27.4 73.0 34.4 15.4 1.3 117.2 27.6 0.0 6.9
17-06-2022 168 36.7 14:40 20.2 5:18 28.6 63.0 33.2 16.5 1.1 109.1 27.5 0.0 6.6
16-06-2022 167 36.1 15:06 18.8 5:30 28.7 63.3 32.4 17.5 0.9 113.1 27.4 0.0 6.2
15-06-2022 166 34.7 14:14 20.2 5:46 28.1 54.8 28.9 18.9 1.0 116.9 24.3 0.0 5.8
14-06-2022 165 37.4 13:54 17.1 3:36 28.0 69.9 28.2 8.9 0.8 133.6 25.8 0.0 5.9
13-06-2022 164 37.3 13:30 19.2 1:22 28.5 54.5 23.3 9.1 0.8 118.0 27.1 0.0 6.1
12-06-2022 163 34.3 12:44 17.1 4:20 26.2 60.8 29.7 13.1 0.9 116.3 28.3 0.0 6.1
11-06-2022 162 32.9 11:56 14.9 4:32 25.4 78.4 33.5 17.1 1.1 102.4 28.8 0.0 6.2
10-06-2022 161 30.6 12:40 17.7 6:00 24.5 82.0 45.7 30.0 0.9 111.5 28.6 0.0 5.8
09-06-2022 160 32.2 12:30 17.6 4:48 25.4 73.4 40.9 25.7 1.0 111.5 28.9 0.0 6.1
08-06-2022 159 33.1 14:10 19.2 3:38 26.1 53.4 33.9 18.7 1.3 294.0 26.2 0.0 6.3
07-06-2022 158 35.4 14:36 16.4 4:26 26.2 42.9 22.9 6.6 0.9 247.0 29.9 0.0 6.3
06-06-2022 157 33.2 13:38 11.7 5:28 23.6 75.3 30.8 12.7 0.7 211.8 29.1 0.0 5.7
05-06-2022 156 29.8 12:48 12.9 5:38 21.1 71.2 38.0 10.4 0.8 131.7 28.9 0.0 5.5
04-06-2022 155 28.4 14:04 11.3 5:30 20.0 84.3 50.2 23.5 1.2 281.0 29.1 0.0 5.7
03-06-2022 154 28.3 14:06 11.7 4:58 20.3 85.3 50.3 19.5 0.9 235.5 27.8 0.0 5.3
02-06-2022 153 28.3 11:02 12.7 4:38 21.1 79.6 49.6 26.6 1.0 262.4 19.2 0.0 4.3
01-06-2022 152 31.1 15:04 13.7 3:00 23.0 71.8 35.5 15.0 0.9 142.5 27.5 0.0 5.6
31-05-2022 151 31.2 14:56 10.7 5:48 22.3 85.6 38.3 10.2 1.0 120.0 29.3 0.0 5.9
30-05-2022 150 29.1 14:12 10.8 5:38 19.4 85.2 51.9 22.6 1.5 292.8 27.7 0.0 5.9
29-05-2022 149 31.7 14:16 13.4 1:22 22.3 72.5 41.1 14.1 1.0 282.6 26.7 0.0 5.7
28-05-2022 148 31.9 14:42 12.4 5:36 23.4 70.1 31.6 16.3 1.0 105.6 28.7 0.0 5.9
27-05-2022 147 27.8 13:48 9.4 5:26 19.8 91.7 44.9 20.1 1.1 108.4 29.3 0.0 5.5
26-05-2022 146 23.9 14:12 8.5 4:56 16.5 89.0 61.6 37.7 0.9 117.1 28.8 0.0 4.8
25-05-2022 145 25.8 14:26 10.7 4:32 17.3 76.1 42.2 16.0 1.2 74.4 29.2 0.0 5.5
24-05-2022 144 28.7 14:22 14.0 5:04 21.0 77.4 41.0 15.7 1.2 295.4 28.3 0.0 5.8
23-05-2022 143 30.9 13:16 15.3 5:58 22.6 77.9 45.9 18.8 1.4 284.8 28.9 0.0 6.3
22-05-2022 142 33.3 15:12 17.5 --:-- 24.8 67.4 34.0 17.5 1.2 270.7 23.0 0.0 5.7
21-05-2022 141 36.0 13:30 18.7 00:24 28.0 61.4 24.2 9.3 1.3 88.9 19.9 0.0 5.8
20-05-2022 140 35.7 13:54 14.8 1:42 25.7 83.4 37.5 12.0 0.8 160.8 25.3 0.0 5.6
19-05-2022 139 33.9 12:24 12.8 4:50 23.6 87.4 48.6 18.9 0.9 127.2 28.2 0.0 5.9
18-05-2022 138 31.1 11:24 12.3 4:38 22.8 86.4 49.0 22.8 0.8 109.9 28.1 0.0 5.5
17-05-2022 137 32.1 14:26 12.3 5:12 22.0 78.6 44.2 20.6 0.4 157.6 28.4 0.0 5.1
16-05-2022 136 29.4 17:06 11.5 4:54 20.8 88.3 46.2 7.2 0.6 169.1 28.8 0.0 5.1
15-05-2022 135 29.3 15:36 12.8 5:56 21.5 83.5 48.0 19.9 0.8 136.4 27.4 0.0 5.2
14-05-2022 134 29.9 14:30 14.3 1:10 22.0 82.6 47.8 21.9 0.9 113.6 25.6 0.0 5.2
13-05-2022 133 27.8 15:06 11.1 5:02 19.9 88.3 54.2 26.1 0.6 115.3 27.5 0.0 4.8
12-05-2022 132 24.9 15:32 10.5 3:12 18.5 87.4 48.3 20.4 0.6 107.7 20.6 0.0 3.8
11-05-2022 131 27.0 14:20 8.7 6:02 18.6 92.6 49.8 22.4 0.6 123.0 27.7 0.0 4.7
10-05-2022 130 24.0 13:22 9.3 5:40 17.5 88.5 52.2 31.5 0.8 101.9 27.6 0.0 4.6
09-05-2022 129 24.7 13:10 9.0 5:36 17.8 91.6 51.9 29.0 0.7 109.6 27.5 0.0 4.6
08-05-2022 128 25.0 14:38 8.0 5:02 16.8 94.5 58.2 30.3 0.4 167.8 26.8 0.0 4.3
07-05-2022 127 25.2 13:00 9.9 5:26 17.2 83.2 48.4 20.5 0.7 117.0 27.7 0.0 4.6
06-05-2022 126 24.6 15:20 6.8 4:40 16.9 95.3 56.2 29.2 1.0 300.0 26.9 0.0 4.6
05-05-2022 125 19.6 11:46 6.4 2:00 13.7 91.3 67.6 53.7 0.9 102.7 18.5 0.0 3.1
04-05-2022 124 12.7 16:06 8.3 8:34 10.4 97.5 92.3 78.3 0.2 177.2 5.4 19.0 1.1
03-05-2022 123 14.9 8:28 9.5 4:54 11.7 94.1 81.9 62.4 0.6 246.6 9.5 6.8 1.8
02-05-2022 122 23.2 13:04 10.8 4:38 16.0 78.4 55.5 26.2 0.9 290.8 22.5 0.0 4.0
01-05-2022 121 25.7 14:20 8.0 1:30 17.9 85.9 52.0 28.4 0.8 302.2 25.2 0.0 4.4
30-04-2022 120 21.1 13:02 5.1 6:04 13.5 96.7 62.5 23.7 0.5 129.5 24.9 0.0 3.7
29-04-2022 119 20.3 12:40 6.8 5:44 12.8 95.3 74.7 44.9 0.6 135.1 23.6 0.1 3.5
28-04-2022 118 18.6 11:38 7.4 00:08 11.8 94.5 76.2 35.4 0.6 98.1 18.0 0.6 2.9
27-04-2022 117 18.6 11:04 7.5 23:38 11.9 94.1 77.6 53.1 0.5 234.2 12.6 10.4 2.2
26-04-2022 116 19.4 14:38 6.0 5:46 12.7 96.6 69.3 31.1 0.4 125.1 17.0 0.0 2.7
25-04-2022 115 21.0 14:40 5.4 6:10 13.3 94.6 68.8 40.6 0.5 132.4 25.4 0.3 3.7
24-04-2022 114 19.4 15:54 6.7 6:12 12.7 87.1 63.8 36.0 1.1 276.4 25.1 0.0 3.8
23-04-2022 113 14.1 11:16 5.6 3:56 8.7 94.5 79.7 52.5 0.9 341.8 10.7 n/d 1.9
22-04-2022 112 12.9 9:12 6.2 2:54 9.7 91.8 77.8 53.1 1.0 107.2 4.9 n/d 1.4
21-04-2022 111 17.2 13:56 6.1 4:48 11.6 76.2 53.9 26.7 1.5 299.1 25.4 0.0 3.9
20-04-2022 110 10.2 00:02 2.2 8:28 6.7 92.3 84.1 67.2 1.4 298.4 8.6 n/d 1.5
19-04-2022 109 22.2 11:00 9.1 4:32 14.8 90.7 64.5 41.9 0.8 286.7 20.6 0.0 3.4
18-04-2022 108 25.2 14:08 9.1 6:08 16.9 89.2 60.6 32.0 0.5 172.7 21.2 0.0 3.6
17-04-2022 107 27.2 14:24 11.5 00:12 19.2 85.4 49.1 26.6 0.8 275.4 23.9 0.0 4.3
16-04-2022 106 25.2 13:32 8.8 1:08 16.1 83.8 55.3 30.9 0.6 138.2 22.6 0.0 3.7
15-04-2022 105 22.5 13:18 9.1 00:14 14.8 92.0 59.9 29.8 0.8 147.2 22.8 0.0 3.7
14-04-2022 104 20.1 13:48 8.1 5:14 13.0 93.4 71.6 43.9 0.8 82.7 16.0 0.0 2.7
13-04-2022 103 18.6 16:08 8.1 5:38 12.0 90.6 68.6 40.1 1.4 297.1 16.5 0.0 3.0
12-04-2022 102 17.8 11:42 7.6 20:48 11.7 92.4 71.5 38.7 0.6 97.5 13.6 1.8 2.3
11-04-2022 101 20.9 12:02 13.6 23:36 16.1 79.6 54.3 33.4 1.3 97.1 21.2 0.0 3.8
10-04-2022 100 23.8 14:18 8.4 3:50 17.0 90.0 48.9 20.6 1.2 106.7 23.2 0.0 4.2
09-04-2022 99 23.4 14:44 8.5 5:30 15.5 85.2 59.2 34.4 1.0 293.2 23.6 0.0 3.9
08-04-2022 98 20.5 13:22 7.8 5:20 14.0 80.4 56.9 32.3 1.8 289.9 21.5 0.0 3.9
07-04-2022 97 19.7 15:42 4.2 5:58 11.9 85.6 61.7 31.7 1.4 296.8 23.4 0.0 3.7
06-04-2022 96 12.8 14:18 4.0 4:30 7.8 97.6 78.9 49.9 1.1 293.3 10.6 0.1 1.8
05-04-2022 95 8.4 15:40 3.8 21:16 5.9 97.5 92.8 79.3 0.2 261.5 4.1 15.5 0.8
04-04-2022 94 12.9 12:18 1.9 5:20 7.0 90.2 68.1 36.4 0.5 214.2 13.1 0.1 1.9
03-04-2022 93 12.4 12:22 1.7 5:46 7.0 92.1 68.6 38.9 0.5 147.2 14.5 0.0 1.9
02-04-2022 92 15.5 15:16 2.5 5:40 8.0 88.3 62.1 27.4 0.9 43.5 21.6 0.0 2.9
01-04-2022 91 14.5 14:00 5.4 23:30 9.5 92.4 69.1 39.7 1.1 312.5 19.5 2.5 2.7
31-03-2022 90 14.4 16:14 7.3 21:46 9.0 92.0 81.7 55.0 1.2 307.8 10.1 9.5 1.8
30-03-2022 89 16.7 13:18 8.1 22:24 10.7 94.8 81.0 59.6 1.1 326.3 9.3 15.8 1.8
29-03-2022 88 17.7 14:58 8.5 3:16 12.4 94.3 77.5 57.7 0.9 308.2 7.8 2.0 1.7
28-03-2022 87 17.1 16:12 9.0 3:24 12.2 90.7 71.7 57.5 0.8 81.2 8.2 0.0 1.7
27-03-2022 86 18.1 15:12 4.5 3:28 11.0 99.3 76.1 46.4 0.6 114.3 12.4 0.0 2.0
26-03-2022 85 14.8 15:42 5.6 4:06 9.1 96.6 84.3 53.5 0.4 172.9 6.3 0.5 1.2
25-03-2022 84 16.4 00:14 6.8 22:10 9.5 96.3 76.9 33.3 1.1 126.2 1.6 9.1 1.5
24-03-2022 83 17.4 23:14 9.2 00:34 13.0 93.6 60.1 28.9 1.9 105.3 3.2 3.9 2.1
23-03-2022 82 16.7 16:54 1.7 9:00 11.5 93.6 75.7 10.4 0.7 200.5 12.6 3.9 2.2
22-03-2022 81 15.8 13:44 1.9 5:22 9.3 99.2 83.2 50.8 0.6 162.7 14.2 2.8 2.0
21-03-2022 80 14.9 12:58 5.7 23:32 9.5 96.3 84.8 58.8 0.5 114.8 8.2 5.4 1.4
20-03-2022 79 17.3 13:02 6.2 4:44 11.6 94.4 65.9 44.1 1.1 131.9 18.3 7.8 2.6
19-03-2022 78 13.5 14:20 6.4 5:26 9.7 97.9 82.4 57.0 0.4 129.0 7.0 0.2 1.3
18-03-2022 77 14.5 13:12 6.6 6:00 9.7 94.3 81.4 49.9 0.4 97.1 8.5 1.6 1.4
17-03-2022 76 17.3 12:50 7.4 3:56 11.1 92.1 74.8 47.7 1.0 332.7 13.9 0.8 2.2
16-03-2022 75 11.8 12:32 8.3 23:52 9.3 96.9 88.9 73.5 0.7 317.8 2.3 12.8 0.8
15-03-2022 74 17.4 16:58 8.6 2:52 12.2 93.7 66.5 31.3 1.2 61.9 2.3 7.8 1.6
14-03-2022 73 11.6 8:20 6.4 12:50 9.3 94.3 84.4 70.1 0.7 302.0 6.0 10.4 1.1
13-03-2022 72 18.2 13:34 8.6 2:24 12.3 87.4 66.8 24.6 1.0 267.0 17.4 0.4 2.7
12-03-2022 71 15.8 13:12 6.0 7:00 10.5 89.2 62.2 31.2 1.2 303.1 18.4 0.0 2.6
11-03-2022 70 14.5 15:00 2.7 5:34 9.0 96.0 78.9 51.7 0.4 131.8 6.2 5.8 1.2
10-03-2022 69 16.5 15:52 1.6 7:14 9.1 95.7 70.5 37.2 0.6 134.8 18.8 0.0 2.2
09-03-2022 68 17.0 13:48 0.6 6:10 8.9 94.9 67.2 35.8 0.7 152.1 19.0 0.2 2.3
08-03-2022 67 14.1 15:00 4.3 3:32 8.7 91.9 70.0 48.3 1.0 319.1 11.7 0.0 1.8
07-03-2022 66 12.4 11:38 6.0 6:16 7.8 88.9 79.0 47.3 0.5 170.7 8.6 1.6 1.3
06-03-2022 65 14.4 11:42 2.6 6:52 7.6 90.5 71.9 33.8 0.5 122.3 13.7 0.0 1.7
05-03-2022 64 14.7 12:22 3.7 4:58 8.4 93.6 69.7 38.5 0.9 300.4 14.5 0.0 2.0
04-03-2022 63 11.5 14:18 2.9 6:22 6.8 92.8 81.1 61.4 1.4 309.8 11.9 12.8 1.6
03-03-2022 62 18.5 14:22 4.7 23:02 10.9 89.8 64.4 32.3 1.2 311.6 12.1 8.6 2.3
02-03-2022 61 20.2 14:20 1.7 7:30 11.0 93.2 57.6 25.0 0.9 279.1 18.0 0.0 2.5
01-03-2022 60 18.3 14:48 0.9 6:56 9.4 96.9 64.8 32.5 0.4 144.6 17.8 0.2 2.0
28-02-2022 59 12.1 11:48 7.0 23:42 8.6 94.5 83.6 62.7 0.7 115.3 5.2 0.0 1.1
27-02-2022 58 15.0 14:56 7.2 8:16 9.8 91.4 78.5 56.4 0.5 155.4 8.8 0.6 1.3
26-02-2022 57 17.2 13:56 6.5 6:34 10.7 92.2 73.6 49.1 0.6 261.8 12.0 1.2 1.7
25-02-2022 56 16.6 12:08 7.9 --:-- 11.5 97.2 77.7 53.0 0.6 152.6 10.0 0.6 1.5
24-02-2022 55 21.4 12:44 2.8 4:54 11.5 96.9 60.7 22.7 0.7 161.2 12.7 10.8 2.1
23-02-2022 54 20.8 13:10 3.9 00:34 12.1 81.8 42.7 15.1 0.7 97.6 12.6 0.0 2.1
22-02-2022 53 22.5 13:10 2.1 7:06 11.4 86.0 49.7 19.7 0.5 142.5 17.0 0.0 2.1
21-02-2022 52 20.8 14:14 4.8 4:56 12.0 91.3 59.5 22.5 0.7 129.2 16.5 0.0 2.2
20-02-2022 51 14.9 12:28 9.3 3:54 10.8 91.9 81.2 59.5 0.5 141.2 7.9 0.0 1.2
19-02-2022 50 16.6 16:06 7.4 4:14 11.6 90.1 70.9 45.7 1.2 287.5 10.9 0.0 1.8
18-02-2022 49 23.4 14:46 2.9 3:00 13.4 77.4 40.6 14.4 0.6 157.4 16.4 0.0 2.1
17-02-2022 48 23.4 14:14 3.9 7:32 12.2 75.9 46.1 14.0 0.5 142.7 16.2 0.0 2.0
16-02-2022 47 19.2 16:08 3.8 2:56 11.2 54.8 35.5 7.0 1.4 346.4 14.8 0.0 2.8
15-02-2022 46 17.3 14:28 1.1 7:50 8.8 78.6 42.8 13.1 0.8 321.6 16.0 0.0 2.0
14-02-2022 45 15.7 14:38 7.4 22:50 10.6 79.7 56.2 26.0 1.2 319.0 12.3 0.2 2.0
13-02-2022 44 14.8 13:42 3.5 7:44 8.9 96.9 77.1 51.4 0.5 136.4 11.2 0.0 1.3
12-02-2022 43 13.9 14:14 -0.3 5:50 7.1 98.6 83.1 54.0 0.6 128.9 12.4 0.2 1.3
11-02-2022 42 18.4 13:40 2.4 7:40 8.8 98.7 75.3 33.3 0.5 139.8 13.6 0.0 1.5
10-02-2022 41 16.7 15:10 1.5 7:32 8.6 94.6 77.4 46.7 0.4 130.7 14.4 0.0 1.4
09-02-2022 40 15.6 14:52 3.3 4:46 8.8 87.7 68.3 40.1 0.6 124.5 14.3 0.0 1.5
08-02-2022 39 16.9 11:54 -0.4 6:28 8.3 98.3 74.8 28.9 0.6 105.3 14.3 0.2 1.5
07-02-2022 38 17.3 13:18 3.2 7:50 9.2 99.3 77.2 39.0 0.3 162.7 14.0 0.0 1.3
06-02-2022 37 16.3 14:52 4.8 6:34 8.7 99.6 83.7 46.1 0.4 110.6 9.4 0.2 1.1
05-02-2022 36 17.3 15:00 6.0 23:56 10.9 94.8 62.4 36.9 0.2 113.9 7.8 0.2 1.0
04-02-2022 35 19.2 13:10 7.6 5:24 12.5 52.5 37.0 15.9 0.8 316.0 8.0 0.0 1.8
03-02-2022 34 23.1 15:16 3.1 7:56 12.5 75.2 38.9 17.5 0.6 292.7 12.5 0.0 1.7
02-02-2022 33 21.8 13:12 -1.2 7:52 9.8 91.2 52.9 18.6 0.4 207.0 14.0 0.0 1.4
01-02-2022 32 18.0 14:42 1.6 23:20 10.5 81.8 40.6 22.3 1.2 294.1 13.7 0.0 2.0
31-01-2022 31 19.5 12:50 2.8 1:28 11.7 74.0 36.4 15.7 0.8 328.4 11.9 0.0 1.7
30-01-2022 30 19.1 13:44 1.5 7:18 9.7 70.7 37.9 17.4 0.3 131.5 11.4 0.0 1.1
29-01-2022 29 17.8 13:24 0.2 7:14 8.7 85.9 43.5 13.0 0.5 84.5 11.7 0.0 1.3
28-01-2022 28 16.7 13:24 0.5 6:22 7.6 87.3 61.4 31.3 0.5 225.5 10.8 0.0 1.2
27-01-2022 27 14.6 13:54 1.9 23:46 8.5 85.1 65.0 41.6 0.3 273.1 7.3 0.0 0.9
26-01-2022 26 11.7 15:42 3.2 2:24 7.3 92.4 78.0 57.3 0.5 103.8 3.7 1.2 0.8
25-01-2022 25 14.3 15:16 1.2 7:54 6.7 90.6 70.6 44.8 0.2 214.9 8.9 0.0 0.8
24-01-2022 24 12.8 13:54 2.7 6:18 7.5 85.9 68.4 48.6 0.3 130.0 7.2 0.0 0.8
23-01-2022 23 12.0 12:24 -2.2 7:26 5.5 95.1 75.8 44.9 0.5 119.9 9.0 0.2 0.9
22-01-2022 22 14.2 14:44 -1.5 7:44 6.0 92.3 72.6 40.6 0.4 166.3 13.2 0.0 1.0
21-01-2022 21 12.7 13:48 -3.0 7:44 4.6 95.4 75.9 39.9 0.4 119.0 11.4 0.2 0.9
20-01-2022 20 15.0 11:04 -2.2 7:22 5.7 100.0 75.3 34.3 0.4 113.8 11.8 0.0 0.9
19-01-2022 19 13.7 14:20 -1.5 1:34 5.1 100.0 79.7 43.6 0.4 131.6 12.0 0.0 0.9
18-01-2022 18 12.8 14:22 -1.7 7:36 5.2 99.0 75.5 37.9 0.5 135.6 12.0 0.2 0.9
17-01-2022 17 13.7 14:06 -2.4 6:58 5.6 100.0 80.1 43.1 0.5 115.4 11.7 0.2 0.9
16-01-2022 16 14.2 15:04 -3.2 4:58 4.8 100.0 81.1 31.6 0.5 264.9 11.8 0.2 0.9
15-01-2022 15 12.8 13:58 -3.9 6:14 3.7 100.0 79.7 40.0 0.3 209.6 11.6 0.0 0.7
14-01-2022 14 13.3 12:56 -1.5 5:48 4.7 93.2 71.1 41.6 0.3 208.3 8.5 0.0 0.7
13-01-2022 13 11.7 13:36 -2.8 7:40 4.3 97.4 72.2 38.7 0.6 275.0 9.7 0.2 0.9
12-01-2022 12 11.1 15:44 2.9 23:58 7.7 100.0 84.9 60.0 0.2 100.1 3.4 0.8 0.6
11-01-2022 11 16.0 12:52 3.5 6:26 9.3 92.5 75.2 47.1 0.5 132.6 9.9 0.0 0.9
10-01-2022 10 21.3 14:18 6.0 7:00 12.2 82.4 58.9 30.4 1.3 35.9 11.1 0.0 1.9
09-01-2022 9 15.8 11:06 7.1 23:36 11.2 76.7 36.7 7.3 1.9 316.7 10.5 0.0 2.2
08-01-2022 8 14.6 12:56 -1.2 5:42 7.2 93.5 55.5 20.1 0.9 291.0 10.0 0.0 1.2
07-01-2022 7 13.9 14:44 0.1 7:52 6.1 84.0 59.5 32.0 0.8 266.5 11.2 0.0 1.1
06-01-2022 6 12.9 14:58 3.3 23:54 7.6 94.1 69.9 37.3 1.4 318.7 10.5 2.0 1.3
05-01-2022 5 10.8 13:48 4.1 6:18 6.8 89.2 66.2 45.3 1.5 314.1 9.9 2.6 1.2
04-01-2022 4 19.6 11:08 5.6 5:44 11.0 87.8 56.2 35.3 0.9 313.0 10.2 0.2 1.4
03-01-2022 3 22.6 14:36 2.2 7:28 11.7 84.4 49.5 15.5 0.3 275.4 11.2 0.0 0.8
02-01-2022 2 22.2 12:40 2.9 2:46 11.8 90.3 52.4 19.6 0.4 259.4 11.0 0.0 1.0
01-01-2022 1 20.6 12:44 1.6 7:54 10.1 91.5 64.5 23.4 0.3 196.1 11.1 0.0 0.8
31-12-2021 365 25.5 13:12 4.1 6:20 12.9 85.7 54.3 21.8 0.2 257.7 10.9 0.0 0.8
30-12-2021 364 25.0 14:20 3.1 6:22 12.6 92.6 58.0 15.9 0.4 116.8 10.9 0.0 1.1
29-12-2021 363 23.2 15:22 5.0 7:30 12.2 98.1 69.5 30.5 0.4 276.2 10.6 0.2 1.0
28-12-2021 362 16.7 14:52 9.1 23:56 12.6 97.5 76.5 53.0 1.5 319.3 10.1 0.4 1.3
27-12-2021 361 16.6 14:48 11.9 7:42 13.9 97.9 77.9 60.4 1.3 344.0 5.2 1.6 1.1
26-12-2021 360 15.0 14:00 8.7 8:02 11.8 94.6 80.2 47.8 1.2 332.5 3.9 0.8 1.1
25-12-2021 359 13.4 18:32 4.7 00:24 10.5 100.0 84.0 71.0 0.9 68.1 2.2 1.8 0.7
24-12-2021 358 12.9 12:50 5.0 23:28 9.5 100.0 97.0 85.2 0.5 52.6 2.2 9.0 0.6
23-12-2021 357 14.7 11:20 1.3 7:52 8.6 100.0 94.7 77.0 0.7 103.4 6.6 0.8 0.7
22-12-2021 356 16.1 13:56 5.1 22:28 10.1 100.0 90.4 60.8 0.5 38.8 4.4 8.8 0.8
21-12-2021 355 21.4 13:44 4.9 6:22 12.2 96.8 67.7 34.4 0.4 135.2 8.5 0.0 0.9
20-12-2021 354 15.9 13:26 6.0 2:18 9.9 100.0 82.7 58.6 0.5 89.2 5.6 0.2 0.8
19-12-2021 353 15.9 13:14 0.3 2:44 7.9 100.0 80.0 44.4 0.7 98.3 10.7 0.2 0.9
18-12-2021 352 14.1 13:00 -1.0 8:08 6.1 100.0 81.9 44.9 0.3 204.4 8.5 0.0 0.7
17-12-2021 351 16.0 13:40 0.2 7:26 6.9 93.8 70.9 34.6 0.4 277.8 8.8 0.0 0.8
16-12-2021 350 16.0 13:42 -1.8 7:14 6.2 100.0 77.3 41.7 0.4 238.7 9.6 0.2 0.8
15-12-2021 349 14.5 13:28 -1.2 6:16 6.0 100.0 84.3 48.2 0.4 144.3 10.4 0.2 0.7
14-12-2021 348 15.9 13:22 -0.7 7:02 7.1 100.0 80.5 36.0 0.4 132.3 10.5 0.2 0.8
13-12-2021 347 16.9 13:26 -0.5 7:14 8.2 99.4 71.8 36.2 0.7 96.9 10.8 0.0 1.0
12-12-2021 346 18.9 13:34 1.8 7:06 9.5 99.3 71.6 39.2 0.5 96.7 10.7 0.0 0.9
11-12-2021 345 19.8 14:50 6.0 22:48 12.3 86.4 65.9 42.3 1.4 322.3 10.5 0.0 1.6
10-12-2021 344 12.6 4:44 7.0 9:44 9.4 89.3 75.6 39.8 1.9 325.3 4.9 0.0 1.4
09-12-2021 343 12.8 14:24 4.4 6:12 8.0 80.2 68.9 52.0 1.7 322.7 9.8 0.0 1.3
08-12-2021 342 11.9 13:20 6.7 23:36 9.3 96.5 70.9 52.3 1.6 322.3 6.1 3.8 1.1
07-12-2021 341 18.9 13:12 3.3 4:50 10.1 88.6 67.3 38.7 1.0 305.7 10.7 0.0 1.4
06-12-2021 340 16.0 12:48 3.9 3:44 8.4 83.9 65.0 23.7 1.3 327.9 11.0 0.0 1.6
05-12-2021 339 12.2 13:18 6.4 22:48 8.7 83.8 62.7 42.8 1.8 327.4 11.1 0.0 1.4
04-12-2021 338 14.9 11:56 1.9 3:02 8.3 83.0 66.2 41.9 1.4 330.4 11.0 0.0 1.4
03-12-2021 337 13.0 14:30 3.5 3:04 7.4 76.9 51.2 36.9 1.9 311.8 11.2 0.0 1.6
02-12-2021 336 9.8 15:02 3.9 23:20 6.4 98.0 77.2 46.5 1.3 312.3 6.0 9.2 1.0
01-12-2021 335 13.8 12:46 -1.8 4:54 6.3 100.0 79.4 48.6 1.3 303.7 11.0 0.2 1.2
30-11-2021 334 16.2 14:12 1.3 7:36 6.9 100.0 80.5 44.3 0.4 226.7 11.2 0.2 0.9
29-11-2021 333 12.2 14:02 3.7 1:42 7.5 90.0 73.1 54.3 1.7 320.0 9.5 0.8 1.2
28-11-2021 332 9.5 14:20 0.4 6:30 4.3 77.8 59.3 33.2 1.5 313.7 11.6 0.0 1.3
27-11-2021 331 10.5 13:12 2.5 23:50 5.6 91.3 71.6 46.2 1.4 303.0 8.7 2.8 1.1
26-11-2021 330 12.8 13:24 4.4 22:06 7.1 90.0 69.8 40.5 1.8 287.4 10.7 0.0 1.5
25-11-2021 329 13.0 13:48 5.1 7:14 7.3 89.3 74.6 48.1 1.3 310.0 10.3 0.4 1.2
24-11-2021 328 11.7 13:06 2.7 4:56 6.2 89.2 71.6 45.2 1.4 305.1 9.8 0.4 1.2
23-11-2021 327 12.2 12:04 2.3 7:38 7.4 90.8 66.3 36.9 0.9 308.0 11.7 1.6 1.1
22-11-2021 326 14.3 14:22 8.5 23:48 10.4 100.0 81.0 58.2 0.8 325.2 5.8 4.4 0.9
21-11-2021 325 15.8 13:04 7.6 4:54 10.7 100.0 82.1 56.1 0.9 309.9 8.4 0.0 1.1
20-11-2021 324 13.8 00:08 9.4 18:54 10.9 100.0 87.5 53.6 0.3 321.3 2.8 9.6 0.7
19-11-2021 323 18.5 13:22 3.3 4:16 11.2 94.8 65.9 38.4 1.2 130.5 10.8 0.0 1.6
18-11-2021 322 17.9 13:18 1.4 5:42 9.0 100.0 75.4 41.7 0.5 283.3 11.2 0.2 1.1
17-11-2021 321 18.0 13:08 0.5 7:12 7.9 100.0 76.8 36.0 0.3 149.4 10.8 0.0 1.0
16-11-2021 320 17.5 14:42 0.8 7:12 8.1 98.1 67.0 35.1 0.4 218.5 12.4 0.0 1.1
15-11-2021 319 17.5 12:10 4.8 23:58 12.1 75.3 47.8 29.0 1.5 311.6 13.3 0.0 2.0
14-11-2021 318 20.5 14:02 2.6 5:38 12.1 100.0 64.0 34.2 0.9 298.7 12.9 0.0 1.6
13-11-2021 317 19.3 11:56 2.2 7:12 10.1 97.2 72.2 37.6 0.5 119.2 13.0 0.0 1.3
12-11-2021 316 19.4 13:02 3.4 7:34 10.1 90.4 63.3 29.5 0.4 162.3 12.1 0.0 1.2
11-11-2021 315 18.0 14:00 4.3 7:28 10.6 86.8 61.2 25.3 0.8 306.5 11.6 0.0 1.5
10-11-2021 314 18.3 12:46 2.7 3:52 9.8 98.2 67.6 28.6 0.6 297.0 13.3 0.0 1.4
09-11-2021 313 19.5 13:36 4.4 7:24 10.7 91.2 59.6 23.9 0.7 208.6 13.8 0.0 1.6
08-11-2021 312 17.5 14:20 0.8 5:44 9.4 73.5 49.9 27.2 1.0 310.9 13.9 0.0 1.8
07-11-2021 311 17.3 13:50 1.4 7:00 8.6 79.6 48.2 19.6 0.8 359.9 14.4 0.0 1.6
06-11-2021 310 15.0 13:58 2.3 7:08 8.3 85.3 56.5 30.9 1.0 326.2 13.0 0.0 1.6
05-11-2021 309 15.1 13:48 3.6 6:36 9.1 79.6 52.5 34.9 1.4 332.6 14.5 0.0 1.9
04-11-2021 308 14.8 14:18 4.2 6:44 9.0 83.7 59.7 38.9 1.3 299.9 14.1 0.0 1.8
03-11-2021 307 13.6 8:58 7.4 23:58 11.3 85.5 65.2 44.1 1.4 316.3 9.0 0.0 1.6
02-11-2021 306 19.6 10:50 12.5 23:00 15.9 86.9 69.2 54.5 1.0 336.8 8.1 0.2 1.6
01-11-2021 305 23.2 12:38 15.4 21:32 18.1 98.3 77.8 59.8 1.2 343.9 8.8 16.6 1.7
31-10-2021 304 22.3 12:30 16.5 6:08 18.8 98.7 77.4 62.6 1.0 351.4 7.4 3.8 1.5
30-10-2021 303 25.3 13:22 13.7 2:46 18.8 78.7 62.9 40.3 1.0 326.2 9.1 0.0 2.1
29-10-2021 302 23.2 14:28 8.1 5:12 15.2 89.7 63.4 26.9 0.6 136.8 10.7 0.0 1.8
28-10-2021 301 22.7 13:22 7.6 7:44 14.0 100.0 76.1 37.1 0.5 136.4 15.0 0.0 1.8
27-10-2021 300 21.3 15:14 6.0 6:32 13.6 97.6 73.3 40.7 0.6 127.4 15.0 0.0 1.8
26-10-2021 299 21.6 13:44 8.3 23:36 14.4 100.0 73.5 25.9 0.6 112.7 14.9 0.0 1.9
25-10-2021 298 21.9 12:10 5.7 7:18 13.3 100.0 79.7 38.8 0.5 129.9 14.0 0.2 1.8
24-10-2021 297 21.7 13:18 5.4 6:54 13.1 100.0 77.4 40.4 0.6 128.3 16.2 0.0 2.0
23-10-2021 296 22.0 12:30 8.6 23:26 14.1 95.8 71.5 40.5 0.6 105.2 11.0 0.0 1.7
22-10-2021 295 23.1 14:32 9.9 6:46 16.3 77.3 54.8 20.0 1.0 314.4 16.4 0.0 2.6
21-10-2021 294 26.9 14:00 12.3 6:20 18.9 64.2 46.9 29.3 1.0 343.5 15.2 0.0 2.8
20-10-2021 293 26.0 14:10 7.7 4:54 17.0 97.7 59.8 27.5 0.6 103.0 16.3 0.0 2.3
19-10-2021 292 24.8 13:12 10.9 6:20 17.7 96.1 68.2 37.8 0.7 98.9 16.4 0.0 2.4
18-10-2021 291 26.0 12:26 10.4 5:50 17.8 85.7 61.4 33.2 0.6 112.6 16.0 0.0 2.4
17-10-2021 290 27.8 14:32 12.8 23:38 19.9 82.9 44.6 22.9 0.8 273.1 15.0 0.0 2.7
16-10-2021 289 27.4 13:38 10.9 7:06 19.5 74.3 39.9 19.7 0.9 307.0 15.8 0.0 2.9
15-10-2021 288 26.4 14:00 7.5 5:30 15.9 100.0 65.5 19.5 0.5 251.7 16.8 0.2 2.4
14-10-2021 287 22.2 12:38 11.6 4:48 16.2 100.0 77.8 48.1 0.8 101.9 16.8 0.0 2.4
13-10-2021 286 25.7 12:10 11.2 7:10 16.6 100.0 79.2 36.5 0.6 139.4 17.1 0.0 2.5
12-10-2021 285 24.6 12:52 12.2 7:18 17.1 94.0 73.1 38.7 0.8 122.2 16.3 0.0 2.6
11-10-2021 284 24.9 11:52 9.6 5:56 16.8 97.5 65.0 28.5 0.7 103.5 16.3 0.0 2.6
10-10-2021 283 24.4 13:56 12.1 23:44 17.5 98.4 74.1 40.2 0.6 160.4 17.9 0.0 2.6
09-10-2021 282 24.0 12:56 15.1 23:58 18.4 89.7 71.9 47.3 1.0 114.1 17.7 0.0 2.9
08-10-2021 281 26.0 12:12 9.4 5:00 17.0 99.8 75.9 35.9 0.4 172.2 18.3 0.0 2.6
07-10-2021 280 26.3 13:48 9.0 6:40 17.3 92.0 66.1 37.6 0.5 165.3 18.5 0.0 2.7
06-10-2021 279 27.5 12:58 10.2 7:00 18.3 87.9 52.4 25.9 0.6 120.3 19.0 0.0 2.9